• Join FlightAware (Why Join?)
  • Login
  • US Flag 
06:35PM EDT


 

Airport Tracker/Info


-or-


 

Live Flight TrackerFlight Track Log ✈ FLG3735 ✈ 27-Jun-2013 ✈ KDTW - KALB

Flight Track Log - Related Links

Times and Time Zones

All times are in EDT time to prevent confusion due to time zone crossing. See the FLG3735 flight status page for this flight to view local times or setup timezone preferences in your user account.

Time Position Orientation Groundspeed Altitude Reporting Facility
EDT Latitude Longitude Course Direction KTS MPH feet Rate Location/Type
10:55PM 42.2017 -83.3553 56° Northeast 149 171 1,300  Level Cleveland Center
10:56PM 42.1703 -83.3539 178° South 189 217 2,100 1,560 Climbing Cleveland Center
10:56PM 42.1164 -83.3489 176° South 228 262 3,900 1,620 Climbing Cleveland Center
10:57PM 42.0831 -83.3447 175° South 237 273 4,600 1,800 Climbing Cleveland Center
10:58PM 42.3149 -82.7589 75° East  Level FlightAware Approximate
10:58PM 42.0286 -83.2694 134° Southeast 302 348 6,900  Level Cleveland Center
10:59PM 42.3309 -82.6075 82° East  Level FlightAware Approximate
10:59PM 42.0658 -83.1872 59° Northeast 308 354 8,900  Level Cleveland Center
11:00PM 42.3604 -82.4626 56° Northeast  Level FlightAware Approximate
11:00PM 42.1078 -83.0908 60° Northeast 314 361 10,800  Level Cleveland Center
11:01PM 42.1558 -82.9781 60° Northeast 320 368 11,900 1,260 Climbing Cleveland Center
11:02PM 42.2022 -82.8564 63° Northeast 339 390 13,400 1,500 Climbing Cleveland Center
11:03PM 42.2525 -82.7347 61° Northeast 352 405 15,000 1,560 Climbing Cleveland Center
11:04PM 42.2922 -82.6042 68° East 363 418 16,600 1,440 Climbing Cleveland Center
11:05PM 42.3031 -82.4586 84° East 371 427 17,900 1,320 Climbing Cleveland Center
11:06PM 42.3181 -82.3100 82° East 383 441 19,300 1,200 Climbing Cleveland Center
11:07PM 42.3286 -82.1589 85° East 394 453 20,300 1,020 Climbing Cleveland Center
11:08PM 42.3453 -81.9878 82° East 409 471 21,400 1,020 Climbing Cleveland Center
11:09PM 42.3597 -81.8308 83° East 415 478 22,400 900 Climbing Cleveland Center
11:10PM 42.3717 -81.6736 84° East 415 478 23,300 720 Climbing Cleveland Center
11:11PM 42.3856 -81.5136 83° East 420 483 23,900 540 Climbing Cleveland Center
11:12PM 42.3992 -81.3536 83° East 426 490 24,400 480 Climbing Cleveland Center
11:13PM 42.4106 -81.1906 85° East 426 490 24,900 300 Climbing Cleveland Center
11:14PM 42.4239 -81.0247 84° East 433 498 25,000  Climbing Cleveland Center
11:15PM 42.4347 -80.8700 85° East 447 514 25,000  Level Cleveland Center
11:16PM 42.4478 -80.6986 84° East 454 522 25,000  Level Cleveland Center
11:17PM 42.4622 -80.5269 83° East 462 532 25,000  Level Cleveland Center
11:18PM 42.4744 -80.3467 85° East 462 532 25,000  Level Cleveland Center
11:19PM 42.4867 -80.1750 84° East 462 532 25,000  Level Cleveland Center
11:20PM 42.5003 -79.9833 84° East 462 532 25,000  Level Cleveland Center
11:21PM 42.5139 -79.8086 84° East 462 532 25,000  Level Cleveland Center
11:22PM 42.5250 -79.6367 85° East 462 532 25,000  Level Cleveland Center
11:23PM 42.5381 -79.4589 84° East 462 532 25,000  Level Cleveland Center
11:24PM 42.5467 -79.2839 86° East 462 532 25,000  Level Cleveland Center
11:25PM 42.5569 -79.1061 85° East 462 532 25,000  Level Cleveland Center
11:26PM 42.5650 -78.9311 86° East 462 532 25,000 420 Level Cleveland Center
11:27PM 42.5772 -78.7589 84° East 462 532 25,900 900 Climbing Cleveland Center
11:28PM 42.5869 -78.5922 85° East 457 526 26,900 540 Climbing Cleveland Center
11:29PM 42.5944 -78.4283 86° East 445 512 27,000  Climbing Cleveland Center
11:30PM 42.6036 -78.2589 86° East 445 512 27,000  Level Cleveland Center
11:31PM 42.6125 -78.0892 86° East 445 512 27,000  Level Cleveland Center
11:32PM 42.6211 -77.9167 86° East 445 512 27,000  Level Cleveland Center
11:33PM 42.6297 -77.7497 86° East 445 512 27,000  Level Cleveland Center
11:35PM 42.6461 -77.3611 87° East 458 527 27,000  Level Boston Center
11:36PM 42.6531 -77.1950 87° East 447 514 27,000  Level Boston Center
11:37PM 42.6600 -77.0261 87° East 447 514 27,000  Level Boston Center
11:38PM 42.6689 -76.8572 86° East 447 514 27,000  Level Boston Center
11:39PM 42.6753 -76.6881 87° East 442 509 27,000  Level Boston Center
11:40PM 42.6817 -76.5161 87° East 442 509 27,000  Level Boston Center
11:41PM 42.6875 -76.3469 87° East 442 509 27,000 -720 Level Boston Center
11:42PM 42.6947 -76.1978 86° East 442 509 25,600 -1,440 Descending Boston Center
11:43PM 42.6983 -76.0197 88° East 442 509 24,200 -1,500 Descending Boston Center
11:44PM 42.7056 -75.8533 87° East 447 514 22,600 -1,620 Descending Boston Center
11:45PM 42.7106 -75.6842 88° East 447 514 21,000 -1,620 Descending Boston Center
11:46PM 42.7153 -75.5175 88° East 441 507 19,400 -1,740 Descending Boston Center
11:47PM 42.7194 -75.3567 88° East 435 501 17,600 -1,620 Descending Boston Center
11:48PM 42.7233 -75.2042 88° East 419 482 16,200 -1,380 Descending Boston Center
11:49PM 42.7247 -75.0544 89° East 404 465 14,900 -1,320 Descending Boston Center
11:50PM 42.7283 -74.8906 88° East 393 452 13,600 -1,140 Descending Boston Center
11:51PM 42.7308 -74.7636 88° East 382 440 12,700 -1,080 Descending Boston Center
11:52PM 42.7336 -74.6281 88° East 337 388 11,500 -840 Descending Boston Center
11:53PM 42.7503 -74.5211 78° East 313 360 11,100 -1,080 Descending Boston Center
11:54PM 42.7817 -74.3947 71° East 273 314 9,300 -1,440 Descending Boston Center
11:55PM 42.8042 -74.3022 72° East 263 303 8,100 -1,200 Descending Boston Center
11:57PM 42.8286 -74.2011 72° East 264 304 6,900 -1,260 Descending Boston Center
11:57PM 42.8528 -74.1167 69° East 261 300 5,600 -1,380 Descending Boston Center
11:58PM 42.8750 -74.0239 72° East 248 285 4,200 -1,260 Descending Boston Center
11:59PM 42.8969 -73.9364 71° East 242 278 3,100 -1,080 Descending Boston Center
12:01AM 42.9000 -73.8572 87° East 203 234 2,100 -540 Descending Boston Center
12:02AM 42.8697 -73.7942 123° Southeast 181 208 2,000 -120 Descending Boston Center